Time;durP1;ratioP1;P1;durP2;ratioP2;P2;SDS_P1;SDS_P2;PMS_P1;PMS_P2;Temp;Humidity;BMP_temperature;BMP_pressure;BME280_temperature;BME280_humidity;BME280_pressure;Samples;Min_cycle;Max_cycle;Signal;HPM_P1;HPM_P2
2023/04/26 00:01:57;;;;;;;0.50;0.50;;;;;;;13.23;100.00;98464.53;5018493;28;20253;-59
2023/04/26 00:04:24;;;;;;;0.63;0.63;;;;;;;13.24;100.00;98463.63;5031253;28;20570;-59
2023/04/26 00:06:52;;;;;;;0.43;0.43;;;;;;;13.22;100.00;98460.28;5030766;28;20233;-60
2023/04/26 00:09:19;;;;;;;0.40;0.40;;;;;;;13.21;100.00;98450.91;5027222;28;20255;-59
2023/04/26 00:11:46;;;;;;;0.70;0.70;;;;;;;13.08;100.00;98430.19;5021672;28;20259;-59
2023/04/26 00:14:13;;;;;;;0.50;0.50;;;;;;;13.23;100.00;98449.06;5015637;28;20675;-59
2023/04/26 00:16:39;;;;;;;0.47;0.47;;;;;;;13.19;100.00;98447.59;5024127;28;20202;-59
2023/04/26 00:19:06;;;;;;;0.50;0.50;;;;;;;13.19;100.00;98447.59;5016512;28;20268;-59
2023/04/26 00:21:33;;;;;;;0.90;0.90;;;;;;;13.23;100.00;98446.50;5020031;28;20210;-60
2023/04/26 00:24:01;;;;;;;0.40;0.40;;;;;;;13.21;100.00;98435.47;5026084;28;20201;-59
2023/04/26 00:26:28;;;;;;;0.40;0.40;;;;;;;13.14;100.00;98418.72;5021315;28;20194;-59
2023/04/26 00:28:55;;;;;;;0.53;0.53;;;;;;;13.26;100.00;98433.47;5026510;28;20206;-60
2023/04/26 00:31:22;;;;;;;0.40;0.40;;;;;;;13.25;100.00;98434.38;5026449;28;20206;-59
2023/04/26 00:33:49;;;;;;;0.60;0.60;;;;;;;13.24;100.00;98435.31;5026367;28;20200;-59
2023/04/26 00:36:18;;;;;;;0.63;0.63;;;;;;;13.24;100.00;98430.16;5021693;28;20201;-59
2023/04/26 00:38:45;;;;;;;0.40;0.40;;;;;;;13.21;100.00;98430.34;5017775;28;20301;-60
2023/04/26 00:41:13;;;;;;;0.70;0.70;;;;;;;13.15;100.00;98412.63;5014630;28;20575;-59
2023/04/26 00:43:40;;;;;;;1.17;1.17;;;;;;;13.16;100.00;98409.16;5029706;28;20202;-59
2023/04/26 00:46:09;;;;;;;0.40;0.40;;;;;;;13.21;100.00;98407.16;5028550;28;20648;-59
2023/04/26 00:48:36;;;;;;;0.53;0.53;;;;;;;13.25;100.00;98407.81;5022189;28;20209;-59
2023/04/26 00:51:04;;;;;;;0.50;0.50;;;;;;;13.27;100.00;98409.41;5022568;28;20197;-60
2023/04/26 00:53:33;;;;;;;0.60;0.60;;;;;;;13.26;100.00;98402.56;5028289;28;20253;-59
2023/04/26 00:56:00;;;;;;;0.60;0.60;;;;;;;13.25;100.00;98400.09;5018688;28;20206;-59
2023/04/26 00:58:28;;;;;;;0.60;0.60;;;;;;;13.28;100.00;98399.94;5013767;28;20214;-59
2023/04/26 01:00:55;;;;;;;0.40;0.40;;;;;;;13.28;100.00;98399.94;5016791;28;20203;-59
2023/04/26 01:03:22;;;;;;;0.40;0.40;;;;;;;13.26;100.00;98402.56;5017783;28;20228;-59
2023/04/26 01:05:49;;;;;;;0.40;0.40;;;;;;;13.23;100.00;98395.03;5023686;28;20239;-60
2023/04/26 01:08:19;;;;;;;0.50;0.50;;;;;;;13.25;100.00;98395.75;5024264;28;20573;-59
2023/04/26 01:10:47;;;;;;;0.60;0.60;;;;;;;13.23;100.00;98396.78;5023716;28;20232;-59
2023/04/26 01:13:14;;;;;;;0.50;0.50;;;;;;;13.20;100.00;98402.94;5030736;28;20217;-60
2023/04/26 01:15:45;;;;;;;0.50;0.50;;;;;;;13.12;100.00;98395.63;5026835;28;20662;-59
2023/04/26 01:18:12;;;;;;;0.60;0.60;;;;;;;13.07;100.00;98402.75;5023041;28;20662;-59
2023/04/26 01:20:40;;;;;;;0.50;0.50;;;;;;;13.07;100.00;98396.78;5027689;28;20212;-59
2023/04/26 01:23:09;;;;;;;0.60;0.60;;;;;;;12.99;100.00;98396.38;5025799;28;20225;-59
2023/04/26 01:25:36;;;;;;;0.50;0.50;;;;;;;12.96;100.00;98399.13;5018528;28;20205;-59
2023/04/26 01:28:03;;;;;;;0.40;0.40;;;;;;;12.98;100.00;98402.44;5022101;28;20205;-59
2023/04/26 01:30:30;;;;;;;0.47;0.47;;;;;;;12.93;100.00;98394.13;5025208;28;20241;-59
2023/04/26 01:32:57;;;;;;;0.40;0.40;;;;;;;12.97;100.00;98387.91;5029264;28;20232;-60
2023/04/26 01:35:23;;;;;;;0.70;0.70;;;;;;;12.95;100.00;98382.03;5016926;28;20275;-59
2023/04/26 01:37:50;;;;;;;0.40;0.40;;;;;;;12.92;100.00;98388.19;5020311;28;20586;-59
2023/04/26 01:40:18;;;;;;;0.40;0.40;;;;;;;12.93;100.00;98381.28;5024731;28;20662;-59
2023/04/26 01:42:45;;;;;;;0.60;0.60;;;;;;;12.92;100.00;98382.22;5015510;28;20666;-59
2023/04/26 01:45:12;;;;;;;0.47;0.47;;;;;;;12.94;100.00;98375.22;5021400;28;20212;-59
2023/04/26 01:47:39;;;;;;;0.43;0.43;;;;;;;12.95;100.00;98376.91;5027838;28;20217;-59
2023/04/26 01:50:07;;;;;;;0.50;0.50;;;;;;;12.95;100.00;98374.31;5013276;28;20206;-59
2023/04/26 01:52:34;;;;;;;0.50;0.50;;;;;;;12.97;100.00;98380.19;5018934;28;20248;-60
2023/04/26 01:55:01;;;;;;;0.40;0.40;;;;;;;13.01;100.00;98379.13;5029247;28;20654;-60
2023/04/26 01:57:29;;;;;;;0.47;0.47;;;;;;;13.05;100.00;98384.00;5019368;28;20582;-60
2023/04/26 01:59:55;;;;;;;0.40;0.40;;;;;;;13.07;100.00;98386.50;5016589;28;20209;-60
2023/04/26 02:02:22;;;;;;;0.50;0.50;;;;;;;13.08;100.00;98383.88;5017482;28;20197;-60
2023/04/26 02:04:49;;;;;;;0.43;0.43;;;;;;;13.00;100.00;98380.03;5024976;28;20205;-59
2023/04/26 02:07:16;;;;;;;0.60;0.60;;;;;;;12.86;100.00;98387.69;5022687;28;20761;-60
2023/04/26 02:09:45;;;;;;;0.50;0.50;;;;;;;12.67;100.00;98387.84;5025539;28;20213;-59
2023/04/26 02:12:12;;;;;;;0.33;0.33;;;;;;;12.56;100.00;98385.91;5019027;28;20670;-59
2023/04/26 02:14:40;;;;;;;0.50;0.50;;;;;;;12.38;100.00;98381.72;5015610;28;20206;-60
2023/04/26 02:17:07;;;;;;;0.40;0.40;;;;;;;12.35;100.00;98381.06;5014232;28;20209;-59
2023/04/26 02:19:34;;;;;;;0.50;0.50;;;;;;;12.33;100.00;98383.72;5022095;28;20300;-59
2023/04/26 02:22:01;;;;;;;0.60;0.60;;;;;;;12.31;100.00;98385.53;5012331;28;20205;-59
2023/04/26 02:24:28;;;;;;;0.50;0.50;;;;;;;12.24;100.00;98384.22;5017016;28;20229;-59
2023/04/26 02:26:59;;;;;;;0.60;0.60;;;;;;;12.22;100.00;98390.31;5015230;28;20202;-59
2023/04/26 02:29:26;;;;;;;0.53;0.53;;;;;;;12.19;100.00;98386.19;5018502;28;20197;-60
2023/04/26 02:31:54;;;;;;;0.40;0.40;;;;;;;12.21;100.00;98394.66;5020395;28;20214;-59
2023/04/26 02:34:20;;;;;;;0.30;0.30;;;;;;;12.22;100.00;98390.31;5014380;28;20590;-59
2023/04/26 02:36:47;;;;;;;0.50;0.50;;;;;;;12.32;100.00;98392.34;5022970;28;20644;-60
2023/04/26 02:39:14;;;;;;;0.43;0.43;;;;;;;12.36;100.00;98387.88;5023253;28;20198;-59
2023/04/26 02:41:41;;;;;;;0.50;0.50;;;;;;;12.38;100.00;98389.44;5017661;28;20292;-59
2023/04/26 02:44:07;;;;;;;0.60;0.60;;;;;;;12.38;100.00;98397.16;5017690;28;20637;-60
2023/04/26 02:46:34;;;;;;;0.60;0.60;;;;;;;12.41;100.00;98402.13;5017651;28;20587;-59
2023/04/26 02:49:03;;;;;;;0.50;0.50;;;;;;;12.37;100.00;98405.78;5021466;28;20252;-59
2023/04/26 02:51:29;;;;;;;0.40;0.40;;;;;;;12.36;100.00;98404.13;5018599;28;20201;-59
2023/04/26 02:53:56;;;;;;;0.53;0.53;;;;;;;12.34;100.00;98405.13;5016236;28;20714;-59
2023/04/26 02:56:23;;;;;;;0.40;0.40;;;;;;;12.35;100.00;98402.44;5020522;28;20201;-59
2023/04/26 02:58:50;;;;;;;0.40;0.40;;;;;;;12.38;100.00;98401.44;5023666;28;20304;-59
2023/04/26 03:01:17;;;;;;;0.50;0.50;;;;;;;12.43;100.00;98404.63;5029453;28;20255;-59
2023/04/26 03:03:44;;;;;;;0.43;0.43;;;;;;;12.48;100.00;98398.31;5015427;28;20275;-59
2023/04/26 03:06:12;;;;;;;0.50;0.50;;;;;;;12.61;100.00;98404.47;5027583;28;20233;-59
2023/04/26 03:08:39;;;;;;;0.50;0.50;;;;;;;12.70;100.00;98402.31;5032624;28;20300;-59
2023/04/26 03:11:06;;;;;;;0.90;0.90;;;;;;;12.77;100.00;98393.31;5033203;28;20563;-59
2023/04/26 03:13:33;;;;;;;0.50;0.50;;;;;;;12.83;100.00;98387.84;5032308;28;20304;-59
2023/04/26 03:15:59;;;;;;;0.40;0.40;;;;;;;12.87;100.00;98394.47;5033136;28;20201;-59
2023/04/26 03:18:26;;;;;;;0.50;0.50;;;;;;;12.92;100.00;98387.34;5032484;28;20701;-59
2023/04/26 03:20:53;;;;;;;0.40;0.40;;;;;;;12.97;100.00;98390.50;5032557;28;20208;-59
2023/04/26 03:23:23;;;;;;;0.43;0.43;;;;;;;12.99;100.00;98394.63;5032931;28;20201;-60
2023/04/26 03:25:50;;;;;;;0.40;0.40;;;;;;;13.00;100.00;98390.31;5032618;28;20288;-59
2023/04/26 03:28:17;;;;;;;0.47;0.47;;;;;;;12.98;100.00;98382.69;5032895;28;20207;-59
2023/04/26 03:30:44;;;;;;;0.50;0.50;;;;;;;13.01;100.00;98397.13;5032526;28;20275;-59
2023/04/26 03:33:10;;;;;;;0.50;0.50;;;;;;;13.04;100.00;98407.25;5033008;28;20224;-59
2023/04/26 03:35:37;;;;;;;0.50;0.50;;;;;;;13.07;100.00;98401.94;5032590;28;20271;-59
2023/04/26 03:38:04;;;;;;;0.60;0.60;;;;;;;13.04;100.00;98396.97;5032803;28;20697;-59
2023/04/26 03:40:32;;;;;;;0.40;0.40;;;;;;;13.03;100.00;98405.56;5032620;28;20640;-59
2023/04/26 03:42:59;;;;;;;0.50;0.50;;;;;;;12.99;100.00;98409.22;5032516;28;20202;-59
2023/04/26 03:45:26;;;;;;;0.40;0.40;;;;;;;12.96;100.00;98409.41;5033093;28;20205;-60
2023/04/26 03:47:53;;;;;;;0.40;0.40;;;;;;;12.87;100.00;98412.50;5032387;28;20547;-59
2023/04/26 03:50:19;;;;;;;0.50;0.50;;;;;;;12.84;100.00;98410.91;5032679;28;20205;-59
2023/04/26 03:52:46;;;;;;;0.40;0.40;;;;;;;12.76;100.00;98422.56;5031979;28;20300;-59
2023/04/26 03:55:13;;;;;;;0.53;0.53;;;;;;;12.72;100.00;98418.47;5026539;28;20232;-59
2023/04/26 03:57:41;;;;;;;0.40;0.40;;;;;;;12.69;100.00;98423.78;5029818;28;20213;-60
2023/04/26 04:00:10;;;;;;;0.60;0.60;;;;;;;12.57;100.00;98423.53;5031443;28;20204;-59
2023/04/26 04:02:37;;;;;;;0.50;0.50;;;;;;;12.61;100.00;98435.31;5031826;28;20209;-59
2023/04/26 04:05:04;;;;;;;0.60;0.60;;;;;;;12.61;100.00;98440.44;5031453;28;20197;-59
2023/04/26 04:07:31;;;;;;;0.43;0.43;;;;;;;12.61;100.00;98440.44;5025571;28;20710;-60
2023/04/26 04:09:58;;;;;;;0.50;0.50;;;;;;;12.64;100.00;98439.44;5022048;28;20261;-59
2023/04/26 04:12:25;;;;;;;0.40;0.40;;;;;;;12.68;100.00;98445.25;5026911;28;20298;-59
2023/04/26 04:14:54;;;;;;;0.47;0.47;;;;;;;12.70;100.00;98443.47;5015439;28;20214;-60
2023/04/26 04:17:20;;;;;;;0.47;0.47;;;;;;;12.71;100.00;98439.94;5029424;28;20657;-59
2023/04/26 04:19:47;;;;;;;0.40;0.40;;;;;;;12.76;100.00;98437.97;5026172;28;20205;-59
2023/04/26 04:22:14;;;;;;;0.43;0.43;;;;;;;12.71;100.00;98434.81;5027113;28;20240;-60
2023/04/26 04:24:43;;;;;;;0.40;0.40;;;;;;;12.66;100.00;98441.97;5025444;28;20201;-59
2023/04/26 04:27:10;;;;;;;0.60;0.60;;;;;;;12.61;100.00;98440.44;5026088;28;20600;-59
2023/04/26 04:29:37;;;;;;;0.50;0.50;;;;;;;12.69;100.00;98436.66;5021815;28;20268;-58
2023/04/26 04:32:05;;;;;;;1.20;1.20;;;;;;;12.88;100.00;98434.72;5019233;28;20202;-59
2023/04/26 04:34:34;;;;;;;0.40;0.40;;;;;;;13.13;100.00;98435.91;5029031;28;20217;-59
2023/04/26 04:37:03;;;;;;;0.50;0.50;;;;;;;13.38;100.00;98431.94;5023231;28;20206;-60
2023/04/26 04:39:29;;;;;;;0.50;0.50;;;;;;;13.65;100.00;98436.34;5023388;28;20226;-59
2023/04/26 04:41:57;;;;;;;0.60;0.60;;;;;;;13.92;100.00;98438.22;5024022;28;20651;-59
2023/04/26 04:44:25;;;;;;;0.60;0.60;;;;;;;14.18;100.00;98440.09;5020805;28;20202;-60
2023/04/26 04:46:52;;;;;;;0.50;0.50;;;;;;;14.46;100.00;98434.94;5017867;28;20293;-59
2023/04/26 04:49:21;;;;;;;0.50;0.50;;;;;;;14.69;100.00;98436.94;5029498;28;20208;-59
2023/04/26 04:51:48;;;;;;;0.50;0.50;;;;;;;14.96;100.00;98443.88;5021648;28;20212;-59
2023/04/26 04:54:16;;;;;;;0.40;0.40;;;;;;;15.22;100.00;98448.19;5025022;28;20728;-60
2023/04/26 04:56:44;;;;;;;0.50;0.50;;;;;;;15.48;100.00;98447.38;5021363;28;20578;-59
2023/04/26 04:59:11;;;;;;;0.60;0.60;;;;;;;15.68;100.00;98456.41;5021186;28;20205;-59
2023/04/26 05:01:37;;;;;;;0.50;0.50;;;;;;;15.93;100.00;98455.63;5023358;28;20214;-60
2023/04/26 05:04:05;;;;;;;0.50;0.50;;;;;;;16.11;98.17;98451.81;5017740;28;20705;-59
2023/04/26 05:06:33;;;;;;;0.50;0.50;;;;;;;16.23;97.65;98446.63;5020813;28;20233;-60
2023/04/26 05:09:00;;;;;;;0.40;0.40;;;;;;;16.50;95.94;98456.00;5019887;28;20639;-64
2023/04/26 05:11:27;;;;;;;0.50;0.50;;;;;;;16.63;95.31;98449.94;5012980;28;20587;-60
2023/04/26 05:13:54;;;;;;;0.50;0.50;;;;;;;16.70;93.92;98448.53;5021857;28;20218;-61
2023/04/26 05:16:22;;;;;;;0.60;0.60;;;;;;;16.71;92.70;98452.78;5024981;28;20585;-60
2023/04/26 05:18:48;;;;;;;0.40;0.40;;;;;;;16.76;93.86;98450.72;5022639;28;20683;-60
2023/04/26 05:21:15;;;;;;;0.60;0.60;;;;;;;16.87;94.67;98446.53;5020395;28;20259;-61
2023/04/26 05:23:44;;;;;;;0.60;0.60;;;;;;;16.95;93.87;98442.47;5020095;28;20236;-60
2023/04/26 05:26:17;;;;;;;0.50;0.50;;;;;;;17.02;94.09;98445.44;5024548;28;20259;-61
2023/04/26 05:28:44;;;;;;;0.50;0.50;;;;;;;17.03;92.92;98445.31;5017643;28;20217;-61
2023/04/26 05:31:11;;;;;;;0.40;0.40;;;;;;;17.17;94.37;98440.00;5026767;28;20240;-61
2023/04/26 05:33:38;;;;;;;0.50;0.50;;;;;;;17.28;92.69;98447.84;5017478;28;20706;-61
2023/04/26 05:36:06;;;;;;;0.50;0.50;;;;;;;17.47;93.23;98443.88;5021330;28;20209;-69
2023/04/26 05:38:32;;;;;;;0.40;0.40;;;;;;;17.52;90.74;98450.38;5016430;28;20228;-61
2023/04/26 05:41:00;;;;;;;0.60;0.60;;;;;;;17.61;91.90;98449.72;5023867;28;20209;-60
2023/04/26 05:43:27;;;;;;;0.50;0.50;;;;;;;17.88;92.71;98443.44;5020256;28;20689;-61
2023/04/26 05:45:55;;;;;;;0.47;0.47;;;;;;;17.96;88.88;98457.50;5024732;28;20209;-61
2023/04/26 05:48:24;;;;;;;0.50;0.50;;;;;;;18.08;87.00;98458.34;5020629;28;20201;-61
2023/04/26 05:50:51;;;;;;;0.50;0.50;;;;;;;18.26;87.38;98456.94;5026362;28;20201;-61
2023/04/26 05:53:19;;;;;;;0.50;0.50;;;;;;;18.46;88.65;98426.84;5021278;28;20586;-61
2023/04/26 05:55:46;;;;;;;0.40;0.40;;;;;;;18.77;88.50;98458.13;5025191;28;20200;-62
2023/04/26 05:58:14;;;;;;;0.40;0.40;;;;;;;18.82;87.40;98455.16;5017295;28;20642;-61
2023/04/26 06:00:41;;;;;;;0.50;0.50;;;;;;;18.80;87.50;98450.09;5020410;28;20228;-61
2023/04/26 06:03:08;;;;;;;0.60;0.60;;;;;;;18.87;87.35;98453.84;5018208;28;20245;-62
2023/04/26 06:05:36;;;;;;;0.40;0.40;;;;;;;18.85;86.90;98440.19;5019353;28;20242;-62
2023/04/26 06:08:03;;;;;;;0.50;0.50;;;;;;;18.78;84.13;98458.94;5019987;28;20236;-62
2023/04/26 06:10:30;;;;;;;0.50;0.50;;;;;;;18.82;85.52;98449.97;5023723;28;20214;-61
2023/04/26 06:12:57;;;;;;;0.60;0.60;;;;;;;18.80;84.76;98452.69;5026059;28;20193;-61
2023/04/26 06:15:26;;;;;;;0.50;0.50;;;;;;;18.69;84.50;98450.13;5026708;28;20248;-61
2023/04/26 06:17:53;;;;;;;0.60;0.60;;;;;;;18.68;84.07;98453.66;5027014;28;20676;-61
2023/04/26 06:20:20;;;;;;;0.40;0.40;;;;;;;18.58;83.34;98452.72;5015451;28;20697;-62
2023/04/26 06:22:46;;;;;;;0.43;0.43;;;;;;;18.40;85.89;98454.09;5021774;28;20210;-61
2023/04/26 06:25:14;;;;;;;0.50;0.50;;;;;;;18.25;85.21;98453.53;5022765;28;20206;-61
2023/04/26 06:27:41;;;;;;;0.53;0.53;;;;;;;18.20;86.91;98453.03;5024584;28;20593;-61
2023/04/26 06:30:09;;;;;;;0.50;0.50;;;;;;;18.12;88.56;98450.22;5024960;28;20212;-61
2023/04/26 06:32:39;;;;;;;0.57;0.57;;;;;;;17.91;86.67;98450.97;5021328;28;20632;-61
2023/04/26 06:35:06;;;;;;;0.60;0.60;;;;;;;17.71;86.53;98447.28;5025056;28;20217;-61
2023/04/26 06:37:33;;;;;;;0.50;0.50;;;;;;;17.45;88.80;98454.34;5026578;28;20234;-61
2023/04/26 06:40:00;;;;;;;0.50;0.50;;;;;;;17.40;89.35;98446.09;5024925;28;20209;-61
2023/04/26 06:42:27;;;;;;;0.50;0.50;;;;;;;17.42;90.50;98444.22;5025987;28;20273;-70
2023/04/26 06:44:54;;;;;;;0.40;0.40;;;;;;;17.55;90.04;98450.19;5026888;28;20198;-61
2023/04/26 06:47:21;;;;;;;0.43;0.43;;;;;;;17.73;93.59;98443.66;5028347;28;20220;-61
2023/04/26 06:49:50;;;;;;;0.40;0.40;;;;;;;18.05;93.99;98435.22;5022544;28;20267;-60
2023/04/26 06:52:17;;;;;;;0.50;0.50;;;;;;;18.38;88.54;98443.03;5026732;28;20592;-59
2023/04/26 06:54:44;;;;;;;0.50;0.50;;;;;;;18.40;88.60;98446.31;5023312;28;20279;-61
2023/04/26 06:57:10;;;;;;;0.60;0.60;;;;;;;18.36;91.90;98442.31;5026921;28;20210;-60
2023/04/26 06:59:37;;;;;;;0.67;0.67;;;;;;;18.27;88.88;98443.03;5026820;28;20209;-60
2023/04/26 07:02:04;;;;;;;0.60;0.60;;;;;;;17.99;87.59;98443.47;5029401;28;20209;-60
2023/04/26 07:04:31;;;;;;;0.40;0.40;;;;;;;17.95;87.88;98436.84;5026443;28;20240;-61
2023/04/26 07:06:59;;;;;;;0.50;0.50;;;;;;;17.83;87.95;98439.41;5027159;28;20265;-60
2023/04/26 07:09:25;;;;;;;0.60;0.60;;;;;;;17.93;89.92;98439.59;5020909;28;20663;-60
2023/04/26 07:11:52;;;;;;;0.40;0.40;;;;;;;18.19;90.30;98438.41;5029208;28;20737;-60
2023/04/26 07:14:19;;;;;;;0.50;0.50;;;;;;;18.42;89.67;98447.03;5020215;28;20229;-61
2023/04/26 07:16:46;;;;;;;0.40;0.40;;;;;;;18.45;83.58;98457.16;5026823;28;20204;-61
2023/04/26 07:19:13;;;;;;;0.40;0.40;;;;;;;18.56;81.22;98462.41;5022575;28;20210;-61
2023/04/26 07:21:39;;;;;;;0.33;0.33;;;;;;;18.56;80.38;98448.59;5022556;28;20675;-61
2023/04/26 07:24:08;;;;;;;0.50;0.50;;;;;;;18.35;81.21;98446.66;5022963;28;20199;-60
2023/04/26 07:26:35;;;;;;;0.50;0.50;;;;;;;18.29;82.39;98456.69;5024803;28;20209;-61
2023/04/26 07:29:02;;;;;;;0.50;0.50;;;;;;;18.34;83.85;98446.81;5025786;28;20297;-60
2023/04/26 07:31:31;;;;;;;0.60;0.60;;;;;;;18.19;86.13;98456.56;5020532;28;20202;-61
2023/04/26 07:33:58;;;;;;;0.40;0.40;;;;;;;18.18;82.33;98454.09;5027920;28;20705;-60
2023/04/26 07:36:26;;;;;;;0.60;0.60;;;;;;;18.09;82.01;98454.81;5021135;28;20716;-61
2023/04/26 07:38:53;;;;;;;0.40;0.40;;;;;;;17.99;83.82;98459.03;5029847;28;20235;-60
2023/04/26 07:41:21;;;;;;;0.50;0.50;;;;;;;17.99;82.06;98459.03;5019573;28;20220;-60
2023/04/26 07:43:48;;;;;;;0.50;0.50;;;;;;;18.11;81.22;98465.88;5021551;28;20194;-61
2023/04/26 07:46:15;;;;;;;0.40;0.40;;;;;;;18.25;81.97;98465.66;5027031;28;20205;-62
2023/04/26 07:48:42;;;;;;;0.50;0.50;;;;;;;18.40;79.30;98467.09;5023844;28;20214;-61
2023/04/26 07:51:11;;;;;;;0.50;0.50;;;;;;;18.45;80.47;98445.97;5027976;28;20713;-62
2023/04/26 07:53:38;;;;;;;0.50;0.50;;;;;;;18.73;78.37;98450.69;5020510;28;20253;-62
2023/04/26 07:56:06;;;;;;;0.40;0.40;;;;;;;18.92;81.01;98460.47;5024762;28;20221;-62
2023/04/26 07:58:35;;;;;;;0.50;0.50;;;;;;;19.11;78.87;98461.47;5026707;28;20198;-62
2023/04/26 08:01:02;;;;;;;0.50;0.50;;;;;;;19.14;78.53;98440.44;5020702;28;20761;-62
2023/04/26 08:03:29;;;;;;;0.40;0.40;;;;;;;19.48;79.08;98458.56;5017869;28;20196;-62
2023/04/26 08:05:57;;;;;;;0.55;0.55;;;;;;;19.62;76.78;98466.88;5021837;28;20441;-65
2023/04/26 08:08:25;;;;;;;0.60;0.60;;;;;;;19.77;77.08;98473.41;5022111;28;20234;-65
2023/04/26 08:10:51;;;;;;;0.50;0.50;;;;;;;20.00;73.85;98463.69;5024875;28;20209;-65
2023/04/26 08:13:18;;;;;;;0.40;0.40;;;;;;;20.27;74.69;98458.00;5022164;28;20206;-65
2023/04/26 08:15:47;;;;;;;0.37;0.37;;;;;;;20.55;78.52;98456.50;5017708;28;20227;-65
2023/04/26 08:18:13;;;;;;;0.30;0.30;;;;;;;20.82;78.81;98448.88;5024000;28;20647;-65
2023/04/26 08:20:40;;;;;;;0.40;0.40;;;;;;;21.04;77.90;98446.03;5029210;28;20208;-65
2023/04/26 08:23:07;;;;;;;0.40;0.40;;;;;;;21.17;71.70;98456.25;5025812;28;20692;-65
2023/04/26 08:25:34;;;;;;;0.40;0.40;;;;;;;21.41;73.87;98454.91;5021478;28;20621;-65
2023/04/26 08:28:01;;;;;;;1.47;0.67;;;;;;;21.59;73.41;98455.03;5025286;28;20217;-65
2023/04/26 08:30:28;;;;;;;0.37;0.37;;;;;;;21.78;67.87;98460.22;5026798;28;20557;-65
2023/04/26 08:32:56;;;;;;;0.43;0.43;;;;;;;22.03;66.47;98453.63;5022057;28;20260;-65
2023/04/26 08:35:23;;;;;;;0.30;0.30;;;;;;;22.17;65.03;98445.34;5025772;28;20217;-65
2023/04/26 08:37:50;;;;;;;0.33;0.33;;;;;;;22.20;63.67;98444.22;5015736;28;20205;-65
2023/04/26 08:40:23;;;;;;;0.40;0.40;;;;;;;22.15;63.58;98439.44;5017564;28;20287;-65
2023/04/26 08:42:51;;;;;;;0.47;0.47;;;;;;;22.22;66.20;98442.31;5022996;28;20241;-65
2023/04/26 08:45:18;;;;;;;0.40;0.40;;;;;;;22.29;63.18;98431.16;5021520;28;20283;-65
2023/04/26 08:47:48;;;;;;;0.40;0.40;;;;;;;22.31;61.30;98438.84;5018004;28;20685;-65
2023/04/26 08:50:19;;;;;;;0.30;0.30;;;;;;;22.46;62.75;98433.00;5023467;28;20209;-65
2023/04/26 08:52:48;;;;;;;0.30;0.30;;;;;;;22.41;63.46;98434.41;5022222;28;20240;-65
2023/04/26 08:55:16;;;;;;;0.30;0.30;;;;;;;22.40;62.81;98432.75;5022116;28;20228;-65
2023/04/26 08:57:43;;;;;;;0.30;0.30;;;;;;;22.42;61.33;98423.78;5023561;28;20780;-65
2023/04/26 09:00:12;;;;;;;0.30;0.30;;;;;;;22.49;61.23;98424.03;5018316;28;20198;-65
2023/04/26 09:02:41;;;;;;;0.30;0.30;;;;;;;22.37;61.52;98409.53;5025586;28;20201;-65
2023/04/26 09:05:09;;;;;;;0.27;0.27;;;;;;;22.32;59.92;98417.81;5025211;28;20292;-65
2023/04/26 09:07:41;;;;;;;0.40;0.40;;;;;;;22.53;56.52;98420.19;5029338;28;20228;-65
2023/04/26 09:10:10;;;;;;;0.43;0.43;;;;;;;22.49;58.68;98418.81;5029227;28;20229;-65
2023/04/26 09:12:37;;;;;;;0.30;0.30;;;;;;;22.70;55.85;98422.06;5029006;28;20201;-65
2023/04/26 09:15:06;;;;;;;0.30;0.30;;;;;;;22.85;53.77;98415.34;5028837;28;20225;-65
2023/04/26 09:17:35;;;;;;;0.30;0.30;;;;;;;22.99;57.19;98422.72;5026902;28;20205;-66
2023/04/26 09:20:17;;;;;;;0.33;0.33;;;;;;;23.11;57.24;98425.09;5029707;28;20209;-65
2023/04/26 09:22:45;;;;;;;0.60;0.60;;;;;;;22.87;54.39;98423.06;5027925;28;20205;-65
2023/04/26 09:25:13;;;;;;;0.40;0.40;;;;;;;22.85;58.14;98404.91;5029149;28;20209;-65
2023/04/26 09:27:42;;;;;;;0.30;0.30;;;;;;;22.81;57.65;98414.00;5030855;28;20205;-65
2023/04/26 09:30:12;;;;;;;0.33;0.33;;;;;;;22.75;58.44;98414.59;5029737;28;20243;-65
2023/04/26 09:32:47;;;;;;;0.30;0.30;;;;;;;22.74;58.64;98417.38;5030073;28;20239;-65
2023/04/26 09:35:22;;;;;;;0.40;0.40;;;;;;;22.42;59.73;98412.56;5030222;28;20574;-65
2023/04/26 09:37:55;;;;;;;0.30;0.30;;;;;;;22.45;59.37;98410.47;5028413;28;20211;-65
2023/04/26 09:40:23;;;;;;;0.40;0.40;;;;;;;22.29;58.95;98406.84;5029882;28;20245;-65
2023/04/26 09:43:00;;;;;;;0.38;0.38;;;;;;;22.20;58.57;98415.50;5029655;28;20444;-62
2023/04/26 09:45:28;;;;;;;0.40;0.40;;;;;;;22.43;59.35;98398.50;5028039;28;20952;-62
2023/04/26 09:47:55;;;;;;;0.47;0.47;;;;;;;22.75;58.36;98403.31;5027377;28;20271;-63
2023/04/26 09:50:30;;;;;;;0.30;0.30;;;;;;;22.80;58.20;98401.94;5029496;28;20658;-63
2023/04/26 09:52:58;;;;;;;0.47;0.47;;;;;;;22.80;57.37;98401.94;5027508;28;20197;-63
2023/04/26 09:55:29;;;;;;;0.40;0.40;;;;;;;22.88;58.57;98399.38;5025710;28;20233;-63
2023/04/26 09:57:57;;;;;;;0.30;0.30;;;;;;;22.80;57.74;98396.69;5025565;28;20602;-63
2023/04/26 10:00:25;;;;;;;0.30;0.30;;;;;;;22.90;60.00;98400.06;5027683;28;20582;-63
2023/04/26 10:02:53;;;;;;;0.30;0.30;;;;;;;22.84;61.41;98392.81;5026913;28;20201;-63
2023/04/26 10:05:21;;;;;;;0.40;0.40;;;;;;;22.98;58.85;98392.31;5026439;28;20229;-63
2023/04/26 10:07:49;;;;;;;0.30;0.30;;;;;;;22.88;57.80;98388.94;5029839;28;20300;-63
2023/04/26 10:10:18;;;;;;;0.40;0.40;;;;;;;22.88;56.21;98383.69;5033293;28;20212;-63
2023/04/26 10:12:46;;;;;;;0.30;0.30;;;;;;;22.77;55.93;98386.53;5033021;28;21337;-62
2023/04/26 10:15:12;;;;;;;0.30;0.30;;;;;;;22.89;56.42;98380.13;5032851;28;20233;-63
2023/04/26 10:17:39;;;;;;;0.40;0.40;;;;;;;22.67;55.20;98383.16;5033457;28;20678;-62
2023/04/26 10:20:11;;;;;;;0.40;0.40;;;;;;;22.65;57.10;98366.75;5033819;28;20700;-64
2023/04/26 10:22:50;;;;;;;0.40;0.40;;;;;;;22.86;57.20;98377.81;5030346;28;20263;-63
2023/04/26 10:25:18;;;;;;;0.30;0.30;;;;;;;22.97;57.15;98376.78;5031973;28;20271;-63
2023/04/26 10:27:51;;;;;;;0.40;0.40;;;;;;;22.93;56.39;98380.66;5033413;28;20206;-64
2023/04/26 10:30:21;;;;;;;0.40;0.40;;;;;;;22.73;54.46;98374.72;5032985;28;20666;-63
2023/04/26 10:33:22;;;;;;;0.40;0.40;;;;;;;22.60;55.30;98374.22;5032869;28;20662;-63
2023/04/26 10:36:06;;;;;;;0.50;0.50;;;;;;;22.40;55.10;98367.47;5031025;28;20697;-61
2023/04/26 10:38:33;;;;;;;0.37;0.37;;;;;;;22.14;56.05;98350.81;5033425;28;20201;-60
2023/04/26 10:41:32;;;;;;;0.33;0.33;;;;;;;21.84;57.55;98368.34;5034017;28;20189;-61
2023/04/26 10:44:00;;;;;;;0.33;0.33;;;;;;;21.43;59.32;98363.50;5015682;28;20205;-60
2023/04/26 10:46:38;;;;;;;0.43;0.43;;;;;;;21.32;61.15;98374.09;5032446;28;20197;-60
2023/04/26 10:49:16;;;;;;;0.70;0.70;;;;;;;21.37;60.94;98372.69;5032561;28;20680;-61
2023/04/26 10:52:11;;;;;;;0.57;0.57;;;;;;;21.14;58.07;98367.91;5032938;28;20593;-61
2023/04/26 10:54:48;;;;;;;0.50;0.50;;;;;;;20.67;57.92;98370.31;5032592;28;20699;-61
2023/04/26 10:57:17;;;;;;;0.50;0.50;;;;;;;20.36;58.66;98379.13;5031117;28;20209;-61
2023/04/26 11:00:32;;;;;;;0.40;0.40;;;;;;;19.88;62.51;98365.88;5030604;28;20213;-60
2023/04/26 11:03:03;;;;;;;0.40;0.40;;;;;;;19.65;65.69;98365.22;5029799;28;20212;-60
2023/04/26 11:05:42;;;;;;;0.53;0.53;;;;;;;19.53;64.79;98361.03;5029201;28;20234;-60
2023/04/26 11:08:17;;;;;;;0.60;0.60;;;;;;;19.45;67.87;98368.63;5026182;28;20644;-61
2023/04/26 11:10:49;;;;;;;0.50;0.50;;;;;;;19.43;68.95;98362.75;5025774;28;20202;-60
2023/04/26 11:13:18;;;;;;;0.50;0.50;;;;;;;19.35;66.85;98365.16;5025665;28;20231;-61
2023/04/26 11:15:46;;;;;;;0.50;0.50;;;;;;;19.33;67.45;98361.81;5025989;28;20720;-60
2023/04/26 11:18:13;;;;;;;0.50;0.50;;;;;;;19.26;67.08;98369.31;5021389;28;20313;-61
2023/04/26 11:20:40;;;;;;;0.40;0.40;;;;;;;19.25;67.25;98370.28;5022854;28;20200;-60
2023/04/26 11:23:08;;;;;;;0.40;0.40;;;;;;;19.32;67.26;98366.19;5025503;28;20589;-60
2023/04/26 11:25:39;;;;;;;0.40;0.40;;;;;;;19.30;67.65;98362.06;5023420;28;20284;-60
2023/04/26 11:28:06;;;;;;;0.40;0.40;;;;;;;19.22;67.48;98369.69;5024825;28;20295;-60
2023/04/26 11:30:34;;;;;;;0.40;0.40;;;;;;;19.30;66.91;98385.47;5013355;28;20202;-60
2023/04/26 11:33:03;;;;;;;0.70;0.70;;;;;;;19.37;65.73;98397.00;5019635;28;20251;-60
2023/04/26 11:35:30;;;;;;;0.60;0.60;;;;;;;19.48;64.07;98406.56;5023195;28;20213;-61